createdAt,value
2019-03-31T00:02:19.576Z,35.00
2019-03-31T00:04:49.778Z,29.80
2019-03-31T00:07:20.055Z,33.87
2019-03-31T00:09:50.290Z,34.23
2019-03-31T00:12:20.718Z,30.30
2019-03-31T00:14:50.920Z,31.67
2019-03-31T00:17:21.126Z,40.60
2019-03-31T00:19:51.344Z,33.73
2019-03-31T00:22:21.588Z,36.90
2019-03-31T00:24:53.481Z,32.33
2019-03-31T00:27:23.793Z,34.63
2019-03-31T00:29:54.123Z,38.00
2019-03-31T00:32:24.428Z,36.43
2019-03-31T00:34:54.764Z,34.57
2019-03-31T00:37:25.030Z,34.17
2019-03-31T00:39:55.267Z,36.00
2019-03-31T00:42:25.512Z,37.10
2019-03-31T00:44:55.847Z,41.70
2019-03-31T00:47:26.209Z,33.67
2019-03-31T00:49:56.458Z,36.13
2019-03-31T00:52:26.679Z,30.13
2019-03-31T00:54:56.938Z,38.40
2019-03-31T00:57:28.831Z,29.07
2019-03-31T00:59:59.055Z,28.50
2019-03-31T01:02:31.753Z,32.17
2019-03-31T01:05:02.329Z,25.10
2019-03-31T01:07:34.615Z,24.07
2019-03-31T01:10:06.799Z,27.13
2019-03-31T01:12:38.291Z,31.80
2019-03-31T01:15:14.821Z,25.33
2019-03-31T01:17:45.371Z,37.00
2019-03-31T01:20:15.642Z,21.90
2019-03-31T01:22:46.025Z,26.20
2019-03-31T01:25:17.041Z,27.90
2019-03-31T01:27:47.734Z,25.20
2019-03-31T01:30:19.867Z,23.80
2019-03-31T01:32:56.897Z,23.87
2019-03-31T01:35:27.126Z,26.30
2019-03-31T01:37:57.388Z,26.90
2019-03-31T01:40:27.803Z,25.03
2019-03-31T01:42:58.055Z,29.90
2019-03-31T01:45:28.318Z,29.13
2019-03-31T01:47:58.603Z,24.70
2019-03-31T01:50:28.945Z,33.90
2019-03-31T01:52:59.167Z,30.17
2019-03-31T01:55:29.493Z,24.27
2019-03-31T01:57:59.790Z,28.83
2019-03-31T02:00:39.459Z,32.93
2019-03-31T02:03:09.770Z,34.07
2019-03-31T02:05:40.261Z,34.73
2019-03-31T02:08:10.619Z,29.03
2019-03-31T02:10:40.865Z,28.50
2019-03-31T02:13:11.219Z,30.27
2019-03-31T02:15:41.491Z,34.10
2019-03-31T02:18:11.790Z,31.20
2019-03-31T02:20:42.263Z,31.87
2019-03-31T02:23:12.489Z,27.90
2019-03-31T02:25:43.801Z,36.30
2019-03-31T02:28:14.043Z,36.03
2019-03-31T02:30:44.380Z,31.30
2019-03-31T02:33:18.336Z,34.37
2019-03-31T02:35:48.755Z,45.80
2019-03-31T02:38:19.027Z,29.70
2019-03-31T02:40:49.248Z,38.93
2019-03-31T02:43:20.480Z,35.60
2019-03-31T02:45:50.768Z,34.10
2019-03-31T02:48:21.043Z,36.23
2019-03-31T02:50:52.268Z,32.10
2019-03-31T02:53:22.558Z,40.10
2019-03-31T02:55:55.967Z,33.47
2019-03-31T02:58:27.437Z,31.70
2019-03-31T03:00:58.720Z,31.77
2019-03-31T03:03:29.867Z,32.80
2019-03-31T03:06:02.848Z,39.33
2019-03-31T03:08:35.156Z,43.80
2019-03-31T03:11:07.022Z,46.20
2019-03-31T03:13:38.916Z,35.93
2019-03-31T03:16:20.269Z,35.40
2019-03-31T03:18:50.993Z,43.07
2019-03-31T03:21:24.702Z,34.27
2019-03-31T03:23:54.222Z,37.87
2019-03-31T03:26:24.686Z,37.20
2019-03-31T03:28:54.927Z,40.53
2019-03-31T03:31:25.255Z,41.50
2019-03-31T03:33:55.531Z,46.23
2019-03-31T03:36:25.876Z,38.10
2019-03-31T03:38:56.617Z,43.30
2019-03-31T03:41:27.908Z,38.00
2019-03-31T03:44:02.402Z,38.67
2019-03-31T03:46:30.079Z,53.10
2019-03-31T03:49:00.507Z,37.73
2019-03-31T03:51:31.010Z,51.27
2019-03-31T03:54:01.552Z,40.10
2019-03-31T03:56:31.829Z,43.30
2019-03-31T03:59:02.067Z,48.63
2019-03-31T04:01:33.076Z,48.07
2019-03-31T04:04:03.332Z,42.60
2019-03-31T04:06:33.556Z,49.30
2019-03-31T04:09:05.841Z,45.80
2019-03-31T04:11:36.099Z,52.83
2019-03-31T04:14:06.411Z,55.20
2019-03-31T04:16:36.680Z,48.90
2019-03-31T04:19:06.929Z,49.00
2019-03-31T04:21:37.182Z,68.83
2019-03-31T04:24:07.501Z,51.40
2019-03-31T04:26:37.746Z,48.50
2019-03-31T04:29:07.955Z,52.83
2019-03-31T04:31:38.168Z,48.80
2019-03-31T04:34:08.426Z,57.67
2019-03-31T04:36:38.719Z,51.57
2019-03-31T04:39:09.040Z,51.27
2019-03-31T04:41:39.435Z,40.73
2019-03-31T04:44:09.794Z,44.60
2019-03-31T04:46:41.203Z,51.83
2019-03-31T04:49:11.437Z,56.03
2019-03-31T04:51:41.751Z,49.13
2019-03-31T04:54:11.985Z,59.60
2019-03-31T04:56:42.256Z,50.80
2019-03-31T04:59:12.524Z,51.80
2019-03-31T05:01:42.916Z,52.90
2019-03-31T05:04:13.155Z,47.57
2019-03-31T05:06:43.435Z,48.60
2019-03-31T05:09:13.763Z,52.13
2019-03-31T05:11:44.017Z,53.17
2019-03-31T05:14:14.272Z,55.37
2019-03-31T05:16:44.641Z,50.47
2019-03-31T05:19:15.003Z,51.03
2019-03-31T05:21:45.442Z,48.83
2019-03-31T05:24:15.724Z,57.70
2019-03-31T05:26:45.953Z,62.63
2019-03-31T05:29:16.173Z,53.80
2019-03-31T05:31:46.445Z,60.37
2019-03-31T05:34:19.346Z,43.97
2019-03-31T05:36:48.719Z,57.13
2019-03-31T05:39:18.979Z,47.97
2019-03-31T05:41:49.209Z,50.43
2019-03-31T05:44:19.449Z,56.07
2019-03-31T05:46:49.663Z,67.63
2019-03-31T05:49:19.933Z,56.07
2019-03-31T05:51:50.279Z,59.20
2019-03-31T05:54:20.585Z,54.83
2019-03-31T05:56:50.802Z,51.30
2019-03-31T05:59:21.261Z,65.70
2019-03-31T06:01:51.513Z,45.73
2019-03-31T06:04:32.615Z,52.87
2019-03-31T06:06:53.701Z,42.10
2019-03-31T06:09:24.029Z,52.93
2019-03-31T06:11:54.341Z,51.77
2019-03-31T06:14:24.677Z,48.33
2019-03-31T06:16:54.919Z,49.57
2019-03-31T06:19:25.293Z,49.03
2019-03-31T06:21:55.605Z,44.17
2019-03-31T06:24:26.171Z,53.77
2019-03-31T06:26:56.413Z,55.13
2019-03-31T06:29:26.709Z,49.77
2019-03-31T06:31:57.008Z,49.70
2019-03-31T06:34:27.245Z,48.10
2019-03-31T06:36:59.333Z,52.67
2019-03-31T06:39:29.591Z,46.57
2019-03-31T06:41:59.953Z,48.87
2019-03-31T06:44:30.275Z,44.37
2019-03-31T06:47:00.871Z,45.40
2019-03-31T06:49:32.447Z,45.10
2019-03-31T06:52:03.963Z,40.07
2019-03-31T06:54:34.240Z,42.90
2019-03-31T06:57:04.543Z,39.60
2019-03-31T06:59:34.987Z,36.60
2019-03-31T07:02:05.453Z,46.77
2019-03-31T07:04:35.729Z,31.27
2019-03-31T07:07:06.040Z,43.33
2019-03-31T07:09:36.329Z,35.63
2019-03-31T07:12:06.723Z,30.20
2019-03-31T07:14:37.079Z,31.53
2019-03-31T07:17:07.355Z,28.00
2019-03-31T07:19:37.596Z,24.87
2019-03-31T07:22:07.905Z,20.23
2019-03-31T07:24:38.174Z,23.33
2019-03-31T07:27:08.456Z,24.70
2019-03-31T07:29:38.995Z,24.00
2019-03-31T07:32:09.280Z,22.37
2019-03-31T07:34:40.697Z,21.43
2019-03-31T07:37:10.923Z,19.03
2019-03-31T07:39:41.353Z,17.87
2019-03-31T07:42:12.320Z,13.83
2019-03-31T07:44:45.855Z,22.47
2019-03-31T07:47:16.197Z,21.33
2019-03-31T07:49:46.537Z,16.13
2019-03-31T07:52:16.797Z,20.00
2019-03-31T07:54:47.023Z,17.83
2019-03-31T07:57:17.355Z,24.90
2019-03-31T07:59:47.689Z,21.80
2019-03-31T08:02:17.964Z,17.50
2019-03-31T08:04:48.371Z,21.23
2019-03-31T08:07:18.600Z,23.30
2019-03-31T08:09:48.905Z,16.73
2019-03-31T08:12:19.360Z,20.20
2019-03-31T08:14:49.714Z,26.23
2019-03-31T08:17:20.453Z,25.70
2019-03-31T08:19:50.689Z,26.80
2019-03-31T08:22:21.023Z,24.20
2019-03-31T08:24:51.365Z,17.50
2019-03-31T08:27:21.647Z,18.57
2019-03-31T08:30:00.106Z,14.70
2019-03-31T08:32:23.989Z,19.10
2019-03-31T08:34:54.207Z,12.03
2019-03-31T08:37:24.460Z,18.50
2019-03-31T08:39:56.428Z,20.33
2019-03-31T08:42:27.034Z,12.47
2019-03-31T08:44:57.278Z,16.93
2019-03-31T08:47:27.555Z,12.00
2019-03-31T08:50:01.598Z,16.30
2019-03-31T08:52:29.964Z,17.10
2019-03-31T08:55:03.255Z,20.40
2019-03-31T08:57:33.504Z,14.33
2019-03-31T09:00:04.661Z,20.80
2019-03-31T09:02:35.989Z,15.63
2019-03-31T09:05:07.400Z,23.93
2019-03-31T09:07:37.821Z,16.77
2019-03-31T09:10:11.394Z,21.60
2019-03-31T09:12:41.833Z,15.13
2019-03-31T09:15:13.868Z,22.20
2019-03-31T09:17:44.190Z,17.70
2019-03-31T09:20:15.195Z,20.40
2019-03-31T09:22:45.446Z,15.77
2019-03-31T09:25:15.794Z,19.50
2019-03-31T09:27:46.066Z,14.97
2019-03-31T09:30:16.646Z,21.70
2019-03-31T09:32:46.948Z,16.93
2019-03-31T09:35:18.434Z,15.20
2019-03-31T09:37:48.766Z,13.70
2019-03-31T09:40:19.570Z,16.50
2019-03-31T09:42:49.835Z,13.80
2019-03-31T09:45:20.656Z,21.20
2019-03-31T09:47:51.172Z,15.97
2019-03-31T09:50:21.864Z,17.50
2019-03-31T09:52:53.144Z,15.53
2019-03-31T09:55:23.526Z,14.67
2019-03-31T09:57:53.778Z,17.53
2019-03-31T10:00:43.708Z,8.87
2019-03-31T10:03:14.269Z,12.43
2019-03-31T10:05:48.011Z,14.90
2019-03-31T10:08:17.058Z,15.97
2019-03-31T10:10:47.274Z,8.50
2019-03-31T10:13:18.787Z,10.90
2019-03-31T10:15:49.107Z,12.70
2019-03-31T10:18:19.408Z,13.10
2019-03-31T10:20:49.834Z,17.33
2019-03-31T10:23:20.059Z,16.57
2019-03-31T10:25:50.370Z,19.07
2019-03-31T10:28:20.800Z,9.23
2019-03-31T10:30:51.146Z,13.83
2019-03-31T10:33:21.406Z,14.40
2019-03-31T10:35:51.614Z,14.13
2019-03-31T10:38:21.958Z,8.20
2019-03-31T10:40:52.242Z,11.10
2019-03-31T10:43:22.564Z,9.20
2019-03-31T10:45:52.958Z,11.27
2019-03-31T10:48:23.242Z,12.53
2019-03-31T10:50:53.501Z,9.00
2019-03-31T10:53:23.938Z,9.30
2019-03-31T10:55:54.230Z,10.00
2019-03-31T10:58:24.628Z,15.50
2019-03-31T11:00:54.874Z,13.10
2019-03-31T11:03:25.300Z,8.50
2019-03-31T11:05:55.691Z,6.20
2019-03-31T11:08:25.922Z,11.67
2019-03-31T11:10:56.234Z,7.80
2019-03-31T11:13:26.590Z,13.10
2019-03-31T11:15:57.576Z,8.27
2019-03-31T11:18:28.026Z,7.00
2019-03-31T11:21:01.997Z,5.67
2019-03-31T11:23:32.407Z,7.50
2019-03-31T11:26:02.763Z,7.47
2019-03-31T11:28:33.194Z,6.40
2019-03-31T11:31:03.687Z,10.90
2019-03-31T11:33:33.930Z,9.30
2019-03-31T11:36:04.334Z,14.40
2019-03-31T11:38:34.636Z,6.73
2019-03-31T11:41:05.404Z,5.37
2019-03-31T11:43:35.677Z,13.37
2019-03-31T11:46:06.049Z,6.20
2019-03-31T11:48:36.566Z,9.30
2019-03-31T11:51:06.993Z,6.63
2019-03-31T11:53:37.299Z,8.70
2019-03-31T11:56:07.610Z,7.60
2019-03-31T11:58:39.311Z,8.57
2019-03-31T12:01:10.059Z,9.20
2019-03-31T12:03:40.457Z,11.37
2019-03-31T12:06:11.387Z,5.30
2019-03-31T12:08:41.997Z,7.80
2019-03-31T12:11:12.409Z,7.90
2019-03-31T12:13:42.942Z,10.73
2019-03-31T12:16:13.536Z,5.93
2019-03-31T12:18:43.854Z,6.83
2019-03-31T12:21:15.375Z,9.67
2019-03-31T12:23:45.719Z,5.97
2019-03-31T12:26:16.046Z,5.50
2019-03-31T12:28:47.195Z,3.27
2019-03-31T12:31:17.757Z,4.67
2019-03-31T12:33:48.947Z,2.30
2019-03-31T12:36:19.471Z,6.83
2019-03-31T12:38:53.457Z,3.13
2019-03-31T12:41:21.982Z,6.20
2019-03-31T12:43:52.378Z,3.47
2019-03-31T12:46:22.806Z,3.57
2019-03-31T12:48:53.433Z,3.10
2019-03-31T12:51:23.711Z,3.63
2019-03-31T12:53:54.281Z,2.70
2019-03-31T12:56:24.531Z,2.37
2019-03-31T12:58:54.851Z,1.63
2019-03-31T13:01:25.517Z,3.83
2019-03-31T13:03:58.570Z,2.90
2019-03-31T13:06:28.819Z,3.60
2019-03-31T13:08:59.062Z,5.87
2019-03-31T13:11:29.498Z,6.30
2019-03-31T13:13:59.871Z,0.97
2019-03-31T13:16:30.177Z,7.20
2019-03-31T13:19:00.459Z,6.33
2019-03-31T13:21:31.076Z,4.47
2019-03-31T13:24:01.739Z,4.47
2019-03-31T13:26:32.093Z,2.50
2019-03-31T13:29:02.494Z,5.63
2019-03-31T13:31:32.787Z,4.80
2019-03-31T13:34:03.455Z,3.50
2019-03-31T13:36:33.674Z,6.00
2019-03-31T13:39:06.796Z,3.60
2019-03-31T13:41:37.119Z,6.17
2019-03-31T13:44:07.484Z,4.63
2019-03-31T13:46:37.806Z,8.83
2019-03-31T13:49:08.103Z,5.20
2019-03-31T13:51:38.606Z,3.80
2019-03-31T13:54:09.159Z,4.23
2019-03-31T13:56:40.041Z,6.40
2019-03-31T13:59:10.644Z,2.60
2019-03-31T14:01:40.953Z,3.23
2019-03-31T14:04:11.332Z,4.43
2019-03-31T14:06:41.782Z,5.00
2019-03-31T14:09:12.347Z,4.57
2019-03-31T14:11:42.930Z,6.20
2019-03-31T14:14:13.207Z,3.50
2019-03-31T14:16:43.534Z,4.47
2019-03-31T14:19:14.710Z,3.63
2019-03-31T14:21:46.042Z,2.70
2019-03-31T14:24:16.393Z,4.23
2019-03-31T14:26:47.817Z,3.13
2019-03-31T14:29:18.456Z,12.63
2019-03-31T14:31:51.822Z,1.00
2019-03-31T14:34:20.962Z,1.20
2019-03-31T14:36:51.231Z,4.27
2019-03-31T14:39:21.556Z,6.00
2019-03-31T14:41:51.751Z,1.70
2019-03-31T14:44:22.100Z,5.57
2019-03-31T14:46:52.381Z,2.50
2019-03-31T14:49:25.688Z,7.03
2019-03-31T14:51:54.806Z,2.93
2019-03-31T14:54:25.008Z,5.60
2019-03-31T14:56:55.240Z,4.00
2019-03-31T14:59:25.599Z,3.40
2019-03-31T15:01:58.695Z,7.93
2019-03-31T15:04:28.892Z,5.37
2019-03-31T15:06:59.184Z,3.43
2019-03-31T15:09:29.465Z,8.37
2019-03-31T15:11:59.730Z,2.40
2019-03-31T15:14:30.142Z,3.20
2019-03-31T15:17:00.472Z,5.23
2019-03-31T15:19:31.184Z,5.33
2019-03-31T15:22:01.421Z,3.77
2019-03-31T15:24:31.765Z,6.80
2019-03-31T15:27:02.002Z,1.37
2019-03-31T15:29:32.256Z,4.40
2019-03-31T15:32:02.497Z,2.20
2019-03-31T15:34:32.702Z,1.43
2019-03-31T15:37:03.020Z,5.13
2019-03-31T15:39:33.308Z,3.37
2019-03-31T15:42:03.654Z,2.03
2019-03-31T15:44:33.837Z,4.00
2019-03-31T15:47:04.078Z,1.90
2019-03-31T15:49:34.285Z,1.63
2019-03-31T15:52:04.740Z,1.93
2019-03-31T15:54:34.955Z,2.30
2019-03-31T15:57:05.305Z,1.77
2019-03-31T15:59:35.687Z,7.50
2019-03-31T16:02:06.006Z,9.33
2019-03-31T16:04:36.660Z,2.23
2019-03-31T16:07:07.120Z,3.50
2019-03-31T16:09:36.879Z,1.93
2019-03-31T16:12:06.634Z,0.80
2019-03-31T16:14:36.326Z,5.70
2019-03-31T16:17:06.054Z,2.60
2019-03-31T16:19:35.972Z,2.73
2019-03-31T16:22:05.767Z,1.90
2019-03-31T16:24:38.637Z,6.37
2019-03-31T16:27:08.310Z,2.93
2019-03-31T16:29:38.325Z,2.80
2019-03-31T16:32:08.203Z,2.00
2019-03-31T16:34:38.131Z,2.07
2019-03-31T16:37:09.205Z,4.20
2019-03-31T16:39:38.930Z,4.00
2019-03-31T16:42:08.763Z,2.47
2019-03-31T16:44:38.555Z,3.80
2019-03-31T16:47:08.347Z,3.80
2019-03-31T16:49:38.163Z,4.70
2019-03-31T16:52:07.988Z,3.80
2019-03-31T16:54:37.693Z,7.70
2019-03-31T16:57:07.435Z,6.97
2019-03-31T16:59:37.271Z,3.53
2019-03-31T17:02:06.937Z,15.07
2019-03-31T17:04:36.885Z,1.80
2019-03-31T17:07:06.672Z,6.50
2019-03-31T17:09:50.534Z,5.27
2019-03-31T17:12:08.135Z,5.43
2019-03-31T17:14:37.944Z,1.87
2019-03-31T17:17:07.633Z,4.70
2019-03-31T17:19:37.384Z,6.87
2019-03-31T17:22:07.175Z,7.00
2019-03-31T17:24:37.881Z,2.10
2019-03-31T17:27:07.578Z,2.40
2019-03-31T17:29:37.421Z,3.43
2019-03-31T17:32:07.192Z,2.30
2019-03-31T17:34:36.989Z,4.20
2019-03-31T17:37:06.833Z,1.40
2019-03-31T17:39:36.653Z,4.20
2019-03-31T17:42:06.661Z,5.10
2019-03-31T17:44:36.441Z,6.43
2019-03-31T17:47:06.363Z,2.17
2019-03-31T17:49:36.117Z,3.47
2019-03-31T17:52:05.825Z,8.57
2019-03-31T17:54:35.605Z,3.30
2019-03-31T17:57:05.412Z,10.90
2019-03-31T17:59:35.153Z,3.13
2019-03-31T18:02:06.123Z,4.20
2019-03-31T18:04:38.403Z,4.90
2019-03-31T18:07:07.807Z,4.00
2019-03-31T18:09:37.553Z,3.20
2019-03-31T18:12:07.261Z,4.00
2019-03-31T18:14:37.144Z,7.30
2019-03-31T18:17:06.962Z,3.43
2019-03-31T18:19:36.855Z,9.40
2019-03-31T18:22:16.412Z,4.53
2019-03-31T18:24:38.053Z,5.90
2019-03-31T18:27:07.789Z,10.03
2019-03-31T18:29:38.382Z,10.60
2019-03-31T18:32:10.920Z,2.87
2019-03-31T18:34:40.759Z,3.30
2019-03-31T18:37:10.533Z,3.27
2019-03-31T18:39:40.329Z,11.50
2019-03-31T18:42:10.081Z,9.73
2019-03-31T18:44:39.949Z,4.90
2019-03-31T18:47:09.777Z,5.23
2019-03-31T18:49:39.768Z,7.93
2019-03-31T18:52:09.570Z,5.47
2019-03-31T18:54:57.491Z,3.40
2019-03-31T18:57:34.345Z,5.13
2019-03-31T19:00:32.223Z,6.20
2019-03-31T19:03:21.310Z,5.43
2019-03-31T19:06:09.052Z,4.10
2019-03-31T19:09:03.917Z,3.23
2019-03-31T19:11:53.127Z,3.00
2019-03-31T19:14:48.045Z,7.00
2019-03-31T19:17:36.048Z,6.73
2019-03-31T19:20:24.018Z,4.03
2019-03-31T19:23:20.221Z,6.90
2019-03-31T19:26:12.327Z,7.77
2019-03-31T19:29:01.839Z,7.20
2019-03-31T19:31:59.405Z,5.47
2019-03-31T19:34:47.200Z,7.20
2019-03-31T19:37:36.092Z,3.73
2019-03-31T19:40:23.933Z,5.30
2019-03-31T19:43:03.787Z,6.00
2019-03-31T19:45:49.705Z,4.47
2019-03-31T19:48:33.206Z,6.53
2019-03-31T19:51:13.745Z,5.60
2019-03-31T19:53:55.381Z,7.10
2019-03-31T19:56:44.548Z,5.77
2019-03-31T19:59:24.649Z,1.97
2019-03-31T20:02:13.427Z,3.90
2019-03-31T20:05:01.516Z,5.03
2019-03-31T20:07:49.878Z,9.00
2019-03-31T20:10:37.443Z,5.50
2019-03-31T20:13:28.391Z,3.77
2019-03-31T20:16:17.362Z,8.63
2019-03-31T20:19:24.734Z,6.10
2019-03-31T20:22:00.557Z,13.73
2019-03-31T20:24:51.419Z,1.90
2019-03-31T20:27:38.986Z,3.53
2019-03-31T20:30:25.567Z,4.33
2019-03-31T20:33:07.276Z,5.10
2019-03-31T20:35:52.109Z,5.90
2019-03-31T20:38:33.897Z,6.07
2019-03-31T20:41:24.484Z,2.13
2019-03-31T20:43:57.493Z,2.63
2019-03-31T20:46:27.300Z,6.90
2019-03-31T20:48:57.140Z,3.73
2019-03-31T20:51:26.920Z,8.30
2019-03-31T20:53:56.772Z,6.73
2019-03-31T20:56:26.617Z,6.10
2019-03-31T20:58:56.357Z,7.03
2019-03-31T21:01:26.232Z,8.20
2019-03-31T21:03:55.985Z,9.37
2019-03-31T21:06:25.830Z,7.20
2019-03-31T21:08:55.692Z,3.23
2019-03-31T21:11:25.497Z,4.80
2019-03-31T21:13:57.203Z,5.17
2019-03-31T21:16:27.246Z,3.03
2019-03-31T21:18:56.939Z,6.27
2019-03-31T21:21:26.686Z,13.80
2019-03-31T21:23:56.585Z,4.37
2019-03-31T21:26:26.486Z,7.47
2019-03-31T21:28:56.262Z,3.30
2019-03-31T21:31:26.041Z,8.30
2019-03-31T21:33:55.908Z,2.73
2019-03-31T21:36:25.666Z,2.30
2019-03-31T21:38:55.561Z,14.37
2019-03-31T21:41:25.266Z,3.50
2019-03-31T21:43:55.042Z,5.40
2019-03-31T21:46:24.791Z,4.40
2019-03-31T21:48:54.567Z,4.70
2019-03-31T21:51:24.322Z,2.40
2019-03-31T21:53:54.054Z,8.50
2019-03-31T21:56:23.742Z,3.47
2019-03-31T21:58:53.672Z,3.37
2019-03-31T22:01:24.865Z,3.90
2019-03-31T22:03:55.786Z,2.73
2019-03-31T22:06:26.450Z,2.87
2019-03-31T22:08:56.324Z,3.17
2019-03-31T22:11:26.085Z,4.50
2019-03-31T22:13:55.841Z,3.17
2019-03-31T22:16:25.656Z,8.67
2019-03-31T22:18:55.413Z,2.10
2019-03-31T22:21:25.149Z,4.73
2019-03-31T22:23:58.045Z,2.23
2019-03-31T22:26:27.565Z,9.87
2019-03-31T22:28:57.337Z,3.50
2019-03-31T22:31:28.582Z,2.67
2019-03-31T22:33:58.342Z,1.40
2019-03-31T22:36:28.146Z,5.03
2019-03-31T22:38:57.923Z,1.73
2019-03-31T22:41:27.662Z,11.50
2019-03-31T22:43:57.426Z,4.20
2019-03-31T22:46:28.727Z,5.20
2019-03-31T22:48:58.493Z,1.77
2019-03-31T22:51:28.371Z,11.33
2019-03-31T22:53:58.075Z,6.03
2019-03-31T22:56:27.802Z,1.57
2019-03-31T22:58:57.734Z,6.37
2019-03-31T23:01:28.212Z,2.13
2019-03-31T23:03:57.966Z,4.93
2019-03-31T23:06:27.652Z,6.23
2019-03-31T23:08:57.353Z,8.23
2019-03-31T23:11:27.051Z,3.83
2019-03-31T23:13:56.766Z,2.10
2019-03-31T23:16:26.608Z,4.00
2019-03-31T23:18:56.424Z,3.67
2019-03-31T23:21:26.234Z,3.27
2019-03-31T23:23:56.973Z,10.45
2019-03-31T23:26:26.880Z,4.95
2019-03-31T23:28:56.547Z,4.93
2019-03-31T23:31:27.758Z,2.53
2019-03-31T23:33:57.554Z,5.33
2019-03-31T23:36:27.526Z,7.33
2019-03-31T23:38:58.618Z,3.80
2019-03-31T23:41:28.696Z,3.22
2019-03-31T23:43:58.390Z,7.87
2019-03-31T23:46:28.110Z,3.40
2019-03-31T23:48:57.869Z,1.80
2019-03-31T23:51:27.588Z,3.22
2019-03-31T23:53:57.296Z,6.00
2019-03-31T23:56:27.045Z,5.87
2019-03-31T23:58:56.861Z,3.02
